sensor_id;sensor_type;location;lat;lon;timestamp;P1;durP1;ratioP1;P2;durP2;ratioP2
63492;SDS011;49638;47.526;10.028;2022-09-09T00:02:20;4.32;;;1.80;;
63492;SDS011;49638;47.526;10.028;2022-09-09T00:12:24;2.35;;;1.67;;
63492;SDS011;49638;47.526;10.028;2022-09-09T00:15:40;2.38;;;1.60;;
63492;SDS011;49638;47.526;10.028;2022-09-09T00:19:05;3.88;;;1.70;;
63492;SDS011;49638;47.526;10.028;2022-09-09T00:22:17;3.97;;;1.63;;
63492;SDS011;49638;47.526;10.028;2022-09-09T00:25:29;3.58;;;1.60;;
63492;SDS011;49638;47.526;10.028;2022-09-09T00:29:20;2.50;;;1.40;;
63492;SDS011;49638;47.526;10.028;2022-09-09T00:32:16;2.75;;;1.30;;
63492;SDS011;49638;47.526;10.028;2022-09-09T00:35:22;1.77;;;1.40;;
63492;SDS011;49638;47.526;10.028;2022-09-09T00:48:54;3.47;;;1.77;;
63492;SDS011;49638;47.526;10.028;2022-09-09T00:52:26;2.28;;;1.88;;
63492;SDS011;49638;47.526;10.028;2022-09-09T01:09:21;1.83;;;1.45;;
63492;SDS011;49638;47.526;10.028;2022-09-09T01:15:35;2.42;;;1.23;;
63492;SDS011;49638;47.526;10.028;2022-09-09T01:18:37;2.40;;;1.10;;
63492;SDS011;49638;47.526;10.028;2022-09-09T01:28:26;2.75;;;1.30;;
63492;SDS011;49638;47.526;10.028;2022-09-09T01:34:33;2.33;;;1.60;;
63492;SDS011;49638;47.526;10.028;2022-09-09T01:37:37;1.38;;;1.10;;
63492;SDS011;49638;47.526;10.028;2022-09-09T01:40:37;1.45;;;1.30;;
63492;SDS011;49638;47.526;10.028;2022-09-09T01:43:38;1.80;;;1.25;;
63492;SDS011;49638;47.526;10.028;2022-09-09T01:46:39;1.77;;;1.30;;
63492;SDS011;49638;47.526;10.028;2022-09-09T01:49:39;4.53;;;1.50;;
63492;SDS011;49638;47.526;10.028;2022-09-09T01:52:40;1.42;;;1.33;;
63492;SDS011;49638;47.526;10.028;2022-09-09T01:55:41;2.38;;;1.17;;
63492;SDS011;49638;47.526;10.028;2022-09-09T02:02:35;4.03;;;1.35;;
63492;SDS011;49638;47.526;10.028;2022-09-09T02:09:25;3.22;;;1.10;;
63492;SDS011;49638;47.526;10.028;2022-09-09T02:12:26;1.63;;;0.95;;
63492;SDS011;49638;47.526;10.028;2022-09-09T02:15:32;2.05;;;0.95;;
63492;SDS011;49638;47.526;10.028;2022-09-09T02:22:04;1.95;;;1.00;;
63492;SDS011;49638;47.526;10.028;2022-09-09T02:25:05;2.55;;;1.35;;
63492;SDS011;49638;47.526;10.028;2022-09-09T02:28:08;1.77;;;1.33;;
63492;SDS011;49638;47.526;10.028;2022-09-09T02:31:13;1.23;;;1.10;;
63492;SDS011;49638;47.526;10.028;2022-09-09T02:34:17;3.45;;;1.58;;
63492;SDS011;49638;47.526;10.028;2022-09-09T02:37:23;1.20;;;1.10;;
63492;SDS011;49638;47.526;10.028;2022-09-09T02:40:28;1.30;;;1.20;;
63492;SDS011;49638;47.526;10.028;2022-09-09T02:43:32;7.45;;;1.60;;
63492;SDS011;49638;47.526;10.028;2022-09-09T02:46:41;2.97;;;1.30;;
63492;SDS011;49638;47.526;10.028;2022-09-09T02:53:23;2.35;;;1.23;;
63492;SDS011;49638;47.526;10.028;2022-09-09T02:56:31;4.30;;;1.38;;
63492;SDS011;49638;47.526;10.028;2022-09-09T02:59:39;1.80;;;1.30;;
63492;SDS011;49638;47.526;10.028;2022-09-09T03:02:39;1.33;;;1.20;;
63492;SDS011;49638;47.526;10.028;2022-09-09T03:05:40;4.03;;;1.20;;
63492;SDS011;49638;47.526;10.028;2022-09-09T03:08:40;1.42;;;1.15;;
63492;SDS011;49638;47.526;10.028;2022-09-09T03:11:42;2.72;;;1.33;;
63492;SDS011;49638;47.526;10.028;2022-09-09T03:14:42;2.65;;;1.20;;
63492;SDS011;49638;47.526;10.028;2022-09-09T03:17:45;3.53;;;1.42;;
63492;SDS011;49638;47.526;10.028;2022-09-09T03:20:46;5.03;;;1.30;;
63492;SDS011;49638;47.526;10.028;2022-09-09T03:23:48;2.10;;;1.60;;
63492;SDS011;49638;47.526;10.028;2022-09-09T03:26:48;2.15;;;1.15;;
63492;SDS011;49638;47.526;10.028;2022-09-09T03:29:50;2.22;;;1.00;;
63492;SDS011;49638;47.526;10.028;2022-09-09T03:32:51;3.47;;;1.27;;
63492;SDS011;49638;47.526;10.028;2022-09-09T03:35:52;2.15;;;1.20;;
63492;SDS011;49638;47.526;10.028;2022-09-09T03:38:53;2.03;;;1.02;;
63492;SDS011;49638;47.526;10.028;2022-09-09T03:41:54;1.33;;;1.23;;
63492;SDS011;49638;47.526;10.028;2022-09-09T03:44:54;2.42;;;1.30;;
63492;SDS011;49638;47.526;10.028;2022-09-09T03:47:57;2.67;;;1.35;;
63492;SDS011;49638;47.526;10.028;2022-09-09T03:50:57;6.82;;;1.40;;
63492;SDS011;49638;47.526;10.028;2022-09-09T03:54:00;2.28;;;1.02;;
63492;SDS011;49638;47.526;10.028;2022-09-09T03:57:01;2.20;;;1.40;;
63492;SDS011;49638;47.526;10.028;2022-09-09T04:00:03;3.00;;;1.40;;
63492;SDS011;49638;47.526;10.028;2022-09-09T04:03:04;4.15;;;1.50;;
63492;SDS011;49638;47.526;10.028;2022-09-09T04:06:06;2.25;;;1.35;;
63492;SDS011;49638;47.526;10.028;2022-09-09T04:09:09;1.75;;;1.20;;
63492;SDS011;49638;47.526;10.028;2022-09-09T04:12:09;2.28;;;1.70;;
63492;SDS011;49638;47.526;10.028;2022-09-09T04:15:13;3.53;;;1.52;;
63492;SDS011;49638;47.526;10.028;2022-09-09T04:18:13;4.00;;;1.33;;
63492;SDS011;49638;47.526;10.028;2022-09-09T04:21:13;2.65;;;1.50;;
63492;SDS011;49638;47.526;10.028;2022-09-09T04:24:13;5.88;;;1.42;;
63492;SDS011;49638;47.526;10.028;2022-09-09T04:27:16;1.92;;;1.30;;
63492;SDS011;49638;47.526;10.028;2022-09-09T04:30:16;3.80;;;1.27;;
63492;SDS011;49638;47.526;10.028;2022-09-09T04:33:16;2.92;;;1.40;;
63492;SDS011;49638;47.526;10.028;2022-09-09T04:36:19;4.22;;;1.40;;
63492;SDS011;49638;47.526;10.028;2022-09-09T04:39:19;2.90;;;1.40;;
63492;SDS011;49638;47.526;10.028;2022-09-09T04:42:20;2.00;;;1.40;;
63492;SDS011;49638;47.526;10.028;2022-09-09T04:45:20;3.13;;;1.42;;
63492;SDS011;49638;47.526;10.028;2022-09-09T04:48:21;3.63;;;1.45;;
63492;SDS011;49638;47.526;10.028;2022-09-09T04:51:21;3.47;;;1.60;;
63492;SDS011;49638;47.526;10.028;2022-09-09T04:54:21;4.13;;;1.58;;
63492;SDS011;49638;47.526;10.028;2022-09-09T04:57:22;3.10;;;1.38;;
63492;SDS011;49638;47.526;10.028;2022-09-09T05:00:22;3.10;;;1.20;;
63492;SDS011;49638;47.526;10.028;2022-09-09T05:03:23;4.85;;;1.17;;
63492;SDS011;49638;47.526;10.028;2022-09-09T05:06:23;5.05;;;1.35;;
63492;SDS011;49638;47.526;10.028;2022-09-09T05:09:24;3.55;;;1.40;;
63492;SDS011;49638;47.526;10.028;2022-09-09T05:12:24;4.72;;;1.27;;
63492;SDS011;49638;47.526;10.028;2022-09-09T05:15:25;1.45;;;1.15;;
63492;SDS011;49638;47.526;10.028;2022-09-09T05:18:25;4.95;;;1.55;;
63492;SDS011;49638;47.526;10.028;2022-09-09T05:21:26;3.08;;;1.30;;
63492;SDS011;49638;47.526;10.028;2022-09-09T05:24:26;4.00;;;1.33;;
63492;SDS011;49638;47.526;10.028;2022-09-09T05:27:27;1.95;;;1.17;;
63492;SDS011;49638;47.526;10.028;2022-09-09T05:30:27;7.72;;;3.60;;
63492;SDS011;49638;47.526;10.028;2022-09-09T05:33:28;3.22;;;1.60;;
63492;SDS011;49638;47.526;10.028;2022-09-09T05:36:28;9.07;;;1.90;;
63492;SDS011;49638;47.526;10.028;2022-09-09T05:39:28;4.25;;;1.45;;
63492;SDS011;49638;47.526;10.028;2022-09-09T05:42:29;3.13;;;1.50;;
63492;SDS011;49638;47.526;10.028;2022-09-09T05:45:30;2.63;;;1.38;;
63492;SDS011;49638;47.526;10.028;2022-09-09T05:48:31;3.28;;;1.30;;
63492;SDS011;49638;47.526;10.028;2022-09-09T05:51:33;2.13;;;1.30;;
63492;SDS011;49638;47.526;10.028;2022-09-09T05:54:33;3.08;;;1.00;;
63492;SDS011;49638;47.526;10.028;2022-09-09T05:57:33;1.83;;;1.13;;
63492;SDS011;49638;47.526;10.028;2022-09-09T06:00:34;2.38;;;1.05;;
63492;SDS011;49638;47.526;10.028;2022-09-09T06:03:34;1.52;;;1.00;;
63492;SDS011;49638;47.526;10.028;2022-09-09T06:06:36;2.28;;;1.08;;
63492;SDS011;49638;47.526;10.028;2022-09-09T06:09:38;2.15;;;1.05;;
63492;SDS011;49638;47.526;10.028;2022-09-09T06:12:39;3.80;;;1.20;;
63492;SDS011;49638;47.526;10.028;2022-09-09T06:15:39;5.38;;;1.70;;
63492;SDS011;49638;47.526;10.028;2022-09-09T06:18:50;4.15;;;1.52;;
63492;SDS011;49638;47.526;10.028;2022-09-09T06:21:50;4.05;;;1.48;;
63492;SDS011;49638;47.526;10.028;2022-09-09T06:24:51;4.25;;;1.63;;
63492;SDS011;49638;47.526;10.028;2022-09-09T06:27:51;2.75;;;1.10;;
63492;SDS011;49638;47.526;10.028;2022-09-09T06:30:57;2.50;;;1.00;;
63492;SDS011;49638;47.526;10.028;2022-09-09T06:33:58;2.45;;;1.00;;
63492;SDS011;49638;47.526;10.028;2022-09-09T06:36:59;3.50;;;1.20;;
63492;SDS011;49638;47.526;10.028;2022-09-09T06:40:00;3.85;;;1.25;;
63492;SDS011;49638;47.526;10.028;2022-09-09T06:43:00;4.28;;;1.50;;
63492;SDS011;49638;47.526;10.028;2022-09-09T06:46:02;3.10;;;1.30;;
63492;SDS011;49638;47.526;10.028;2022-09-09T06:49:08;2.58;;;1.50;;
63492;SDS011;49638;47.526;10.028;2022-09-09T06:52:09;4.07;;;1.50;;
63492;SDS011;49638;47.526;10.028;2022-09-09T06:55:09;2.83;;;1.00;;
63492;SDS011;49638;47.526;10.028;2022-09-09T06:58:10;3.08;;;1.05;;
63492;SDS011;49638;47.526;10.028;2022-09-09T07:01:14;2.50;;;1.30;;
63492;SDS011;49638;47.526;10.028;2022-09-09T07:04:16;2.53;;;1.20;;
63492;SDS011;49638;47.526;10.028;2022-09-09T07:07:16;5.65;;;1.65;;
63492;SDS011;49638;47.526;10.028;2022-09-09T07:10:17;4.45;;;1.30;;
63492;SDS011;49638;47.526;10.028;2022-09-09T07:13:18;1.27;;;0.90;;
63492;SDS011;49638;47.526;10.028;2022-09-09T07:16:21;4.03;;;1.40;;
63492;SDS011;49638;47.526;10.028;2022-09-09T07:19:25;3.45;;;1.20;;
63492;SDS011;49638;47.526;10.028;2022-09-09T07:22:27;1.20;;;0.90;;
63492;SDS011;49638;47.526;10.028;2022-09-09T07:25:27;1.02;;;0.70;;
63492;SDS011;49638;47.526;10.028;2022-09-09T07:28:30;2.28;;;0.95;;
63492;SDS011;49638;47.526;10.028;2022-09-09T07:31:32;0.98;;;0.80;;
63492;SDS011;49638;47.526;10.028;2022-09-09T07:37:36;2.20;;;1.00;;
63492;SDS011;49638;47.526;10.028;2022-09-09T07:40:37;1.98;;;0.75;;
63492;SDS011;49638;47.526;10.028;2022-09-09T07:43:41;1.92;;;0.73;;
63492;SDS011;49638;47.526;10.028;2022-09-09T07:46:43;2.17;;;1.00;;
63492;SDS011;49638;47.526;10.028;2022-09-09T07:49:45;4.05;;;1.20;;
63492;SDS011;49638;47.526;10.028;2022-09-09T07:52:46;2.90;;;1.10;;
63492;SDS011;49638;47.526;10.028;2022-09-09T07:55:46;2.72;;;1.20;;
63492;SDS011;49638;47.526;10.028;2022-09-09T07:58:47;5.45;;;2.13;;
63492;SDS011;49638;47.526;10.028;2022-09-09T08:01:51;3.50;;;1.90;;
63492;SDS011;49638;47.526;10.028;2022-09-09T08:04:54;1.83;;;1.20;;
63492;SDS011;49638;47.526;10.028;2022-09-09T08:07:54;3.17;;;1.30;;
63492;SDS011;49638;47.526;10.028;2022-09-09T08:11:01;1.88;;;1.20;;
63492;SDS011;49638;47.526;10.028;2022-09-09T08:14:05;1.45;;;1.08;;
63492;SDS011;49638;47.526;10.028;2022-09-09T08:17:07;2.72;;;1.20;;
63492;SDS011;49638;47.526;10.028;2022-09-09T08:20:08;1.88;;;1.08;;
63492;SDS011;49638;47.526;10.028;2022-09-09T08:23:09;1.73;;;1.33;;
63492;SDS011;49638;47.526;10.028;2022-09-09T08:26:13;2.13;;;1.27;;
63492;SDS011;49638;47.526;10.028;2022-09-09T08:29:15;3.03;;;1.20;;
63492;SDS011;49638;47.526;10.028;2022-09-09T08:32:15;2.10;;;1.13;;
63492;SDS011;49638;47.526;10.028;2022-09-09T08:35:16;1.77;;;1.20;;
63492;SDS011;49638;47.526;10.028;2022-09-09T08:38:17;3.60;;;1.38;;
63492;SDS011;49638;47.526;10.028;2022-09-09T08:50:52;3.25;;;1.60;;
63492;SDS011;49638;47.526;10.028;2022-09-09T08:53:54;3.38;;;1.25;;
63492;SDS011;49638;47.526;10.028;2022-09-09T08:56:58;2.47;;;1.52;;
63492;SDS011;49638;47.526;10.028;2022-09-09T08:59:59;3.28;;;1.60;;
63492;SDS011;49638;47.526;10.028;2022-09-09T09:03:09;2.03;;;1.25;;
63492;SDS011;49638;47.526;10.028;2022-09-09T09:12:38;8.15;;;2.95;;
63492;SDS011;49638;47.526;10.028;2022-09-09T09:15:41;4.93;;;2.83;;
63492;SDS011;49638;47.526;10.028;2022-09-09T09:18:44;4.22;;;1.90;;
63492;SDS011;49638;47.526;10.028;2022-09-09T09:21:45;1.73;;;1.25;;
63492;SDS011;49638;47.526;10.028;2022-09-09T09:24:56;2.25;;;1.70;;
63492;SDS011;49638;47.526;10.028;2022-09-09T09:31:24;3.35;;;1.13;;
63492;SDS011;49638;47.526;10.028;2022-09-09T09:34:26;3.03;;;1.60;;
63492;SDS011;49638;47.526;10.028;2022-09-09T09:37:29;3.00;;;1.30;;
63492;SDS011;49638;47.526;10.028;2022-09-09T09:40:31;2.40;;;1.27;;
63492;SDS011;49638;47.526;10.028;2022-09-09T09:43:34;2.33;;;1.35;;
63492;SDS011;49638;47.526;10.028;2022-09-09T09:46:40;3.25;;;1.55;;
63492;SDS011;49638;47.526;10.028;2022-09-09T09:49:53;6.13;;;1.30;;
63492;SDS011;49638;47.526;10.028;2022-09-09T09:52:59;4.60;;;1.25;;
63492;SDS011;49638;47.526;10.028;2022-09-09T09:56:08;4.75;;;1.50;;
63492;SDS011;49638;47.526;10.028;2022-09-09T10:02:37;4.40;;;1.30;;
63492;SDS011;49638;47.526;10.028;2022-09-09T10:05:44;1.85;;;1.38;;
63492;SDS011;49638;47.526;10.028;2022-09-09T10:08:46;4.13;;;1.60;;
63492;SDS011;49638;47.526;10.028;2022-09-09T10:18:41;4.78;;;1.60;;
63492;SDS011;49638;47.526;10.028;2022-09-09T10:21:57;5.47;;;1.35;;
63492;SDS011;49638;47.526;10.028;2022-09-09T10:31:40;3.20;;;2.40;;
63492;SDS011;49638;47.526;10.028;2022-09-09T10:35:08;3.20;;;2.50;;
63492;SDS011;49638;47.526;10.028;2022-09-09T10:44:24;2.70;;;1.42;;
63492;SDS011;49638;47.526;10.028;2022-09-09T10:57:31;2.92;;;1.40;;
63492;SDS011;49638;47.526;10.028;2022-09-09T11:03:37;2.95;;;1.50;;
63492;SDS011;49638;47.526;10.028;2022-09-09T11:06:41;2.42;;;1.10;;
63492;SDS011;49638;47.526;10.028;2022-09-09T11:09:47;3.28;;;1.45;;
63492;SDS011;49638;47.526;10.028;2022-09-09T11:12:59;4.60;;;1.60;;
63492;SDS011;49638;47.526;10.028;2022-09-09T11:16:16;2.75;;;1.40;;
63492;SDS011;49638;47.526;10.028;2022-09-09T11:19:42;4.95;;;1.42;;
63492;SDS011;49638;47.526;10.028;2022-09-09T11:25:56;3.38;;;0.90;;
63492;SDS011;49638;47.526;10.028;2022-09-09T11:32:38;4.88;;;1.45;;
63492;SDS011;49638;47.526;10.028;2022-09-09T11:46:31;6.90;;;2.67;;
63492;SDS011;49638;47.526;10.028;2022-09-09T11:49:40;3.70;;;1.40;;
63492;SDS011;49638;47.526;10.028;2022-09-09T11:52:43;3.83;;;1.48;;
63492;SDS011;49638;47.526;10.028;2022-09-09T11:55:59;6.15;;;2.05;;
63492;SDS011;49638;47.526;10.028;2022-09-09T12:02:23;2.63;;;1.50;;
63492;SDS011;49638;47.526;10.028;2022-09-09T12:05:42;4.05;;;1.70;;
63492;SDS011;49638;47.526;10.028;2022-09-09T12:08:47;3.15;;;1.42;;
63492;SDS011;49638;47.526;10.028;2022-09-09T12:11:52;2.47;;;1.30;;
63492;SDS011;49638;47.526;10.028;2022-09-09T12:18:14;3.17;;;1.52;;
63492;SDS011;49638;47.526;10.028;2022-09-09T12:21:25;1.85;;;1.38;;
63492;SDS011;49638;47.526;10.028;2022-09-09T12:24:47;3.38;;;1.20;;
63492;SDS011;49638;47.526;10.028;2022-09-09T12:34:34;4.63;;;2.00;;
63492;SDS011;49638;47.526;10.028;2022-09-09T12:37:49;4.30;;;1.30;;
63492;SDS011;49638;47.526;10.028;2022-09-09T12:40:57;4.88;;;1.50;;
63492;SDS011;49638;47.526;10.028;2022-09-09T12:44:05;4.75;;;1.75;;
63492;SDS011;49638;47.526;10.028;2022-09-09T12:47:09;3.58;;;1.20;;
63492;SDS011;49638;47.526;10.028;2022-09-09T12:50:16;1.48;;;1.10;;
63492;SDS011;49638;47.526;10.028;2022-09-09T12:53:22;2.33;;;1.15;;
63492;SDS011;49638;47.526;10.028;2022-09-09T12:56:30;4.38;;;1.17;;
63492;SDS011;49638;47.526;10.028;2022-09-09T12:59:36;3.20;;;1.13;;
63492;SDS011;49638;47.526;10.028;2022-09-09T13:06:19;2.28;;;1.08;;
63492;SDS011;49638;47.526;10.028;2022-09-09T13:09:27;2.78;;;1.10;;
63492;SDS011;49638;47.526;10.028;2022-09-09T13:12:27;4.55;;;1.30;;
63492;SDS011;49638;47.526;10.028;2022-09-09T13:15:28;3.92;;;1.00;;
63492;SDS011;49638;47.526;10.028;2022-09-09T13:18:36;1.52;;;1.02;;
63492;SDS011;49638;47.526;10.028;2022-09-09T13:21:40;4.10;;;1.15;;
63492;SDS011;49638;47.526;10.028;2022-09-09T13:24:40;1.77;;;1.27;;
63492;SDS011;49638;47.526;10.028;2022-09-09T13:27:50;2.35;;;1.20;;
63492;SDS011;49638;47.526;10.028;2022-09-09T13:31:00;2.70;;;0.98;;
63492;SDS011;49638;47.526;10.028;2022-09-09T13:34:10;1.98;;;1.20;;
63492;SDS011;49638;47.526;10.028;2022-09-09T13:37:34;3.30;;;1.30;;
63492;SDS011;49638;47.526;10.028;2022-09-09T13:40:37;1.65;;;1.10;;
63492;SDS011;49638;47.526;10.028;2022-09-09T13:43:38;1.80;;;1.13;;
63492;SDS011;49638;47.526;10.028;2022-09-09T13:46:43;4.65;;;1.30;;
63492;SDS011;49638;47.526;10.028;2022-09-09T13:49:44;1.27;;;0.90;;
63492;SDS011;49638;47.526;10.028;2022-09-09T13:52:46;1.30;;;1.00;;
63492;SDS011;49638;47.526;10.028;2022-09-09T13:55:49;4.97;;;1.40;;
63492;SDS011;49638;47.526;10.028;2022-09-09T13:58:50;3.78;;;1.33;;
63492;SDS011;49638;47.526;10.028;2022-09-09T14:01:50;1.55;;;1.23;;
63492;SDS011;49638;47.526;10.028;2022-09-09T14:04:52;1.40;;;1.23;;
63492;SDS011;49638;47.526;10.028;2022-09-09T14:07:55;3.28;;;1.27;;
63492;SDS011;49638;47.526;10.028;2022-09-09T14:10:55;2.08;;;1.10;;
63492;SDS011;49638;47.526;10.028;2022-09-09T14:13:58;4.22;;;1.38;;
63492;SDS011;49638;47.526;10.028;2022-09-09T14:16:58;2.92;;;1.60;;
63492;SDS011;49638;47.526;10.028;2022-09-09T14:19:58;1.27;;;1.00;;
63492;SDS011;49638;47.526;10.028;2022-09-09T14:22:59;3.00;;;1.30;;
63492;SDS011;49638;47.526;10.028;2022-09-09T14:25:59;4.50;;;1.30;;
63492;SDS011;49638;47.526;10.028;2022-09-09T14:28:59;2.53;;;1.20;;
63492;SDS011;49638;47.526;10.028;2022-09-09T14:32:01;1.45;;;1.33;;
63492;SDS011;49638;47.526;10.028;2022-09-09T14:35:01;2.53;;;1.20;;
63492;SDS011;49638;47.526;10.028;2022-09-09T14:38:03;4.40;;;1.40;;
63492;SDS011;49638;47.526;10.028;2022-09-09T14:41:05;1.95;;;1.20;;
63492;SDS011;49638;47.526;10.028;2022-09-09T14:44:05;3.22;;;1.40;;
63492;SDS011;49638;47.526;10.028;2022-09-09T14:47:06;4.05;;;1.50;;
63492;SDS011;49638;47.526;10.028;2022-09-09T14:50:08;1.52;;;1.20;;
63492;SDS011;49638;47.526;10.028;2022-09-09T14:53:08;1.70;;;1.30;;
63492;SDS011;49638;47.526;10.028;2022-09-09T14:56:11;1.92;;;1.42;;
63492;SDS011;49638;47.526;10.028;2022-09-09T14:59:15;1.30;;;1.20;;
63492;SDS011;49638;47.526;10.028;2022-09-09T15:02:16;3.25;;;1.30;;
63492;SDS011;49638;47.526;10.028;2022-09-09T15:05:16;2.53;;;1.20;;
63492;SDS011;49638;47.526;10.028;2022-09-09T15:08:17;2.78;;;1.33;;
63492;SDS011;49638;47.526;10.028;2022-09-09T15:11:17;1.55;;;1.42;;
63492;SDS011;49638;47.526;10.028;2022-09-09T15:14:18;2.45;;;1.10;;
63492;SDS011;49638;47.526;10.028;2022-09-09T15:17:18;2.63;;;1.38;;
63492;SDS011;49638;47.526;10.028;2022-09-09T15:20:20;1.42;;;1.10;;
63492;SDS011;49638;47.526;10.028;2022-09-09T15:23:20;2.78;;;1.30;;
63492;SDS011;49638;47.526;10.028;2022-09-09T15:26:20;1.90;;;1.10;;
63492;SDS011;49638;47.526;10.028;2022-09-09T15:29:21;1.77;;;1.13;;
63492;SDS011;49638;47.526;10.028;2022-09-09T15:32:21;3.65;;;1.20;;
63492;SDS011;49638;47.526;10.028;2022-09-09T15:35:22;2.47;;;1.20;;
63492;SDS011;49638;47.526;10.028;2022-09-09T15:38:22;1.67;;;1.40;;
63492;SDS011;49638;47.526;10.028;2022-09-09T15:41:22;2.45;;;1.25;;
63492;SDS011;49638;47.526;10.028;2022-09-09T15:44:23;4.90;;;1.50;;
63492;SDS011;49638;47.526;10.028;2022-09-09T15:47:25;3.83;;;1.48;;
63492;SDS011;49638;47.526;10.028;2022-09-09T15:50:25;2.65;;;1.33;;
63492;SDS011;49638;47.526;10.028;2022-09-09T15:53:26;1.98;;;1.10;;
63492;SDS011;49638;47.526;10.028;2022-09-09T15:56:27;1.40;;;1.30;;
63492;SDS011;49638;47.526;10.028;2022-09-09T15:59:30;2.38;;;1.30;;
63492;SDS011;49638;47.526;10.028;2022-09-09T16:02:31;3.05;;;1.30;;
63492;SDS011;49638;47.526;10.028;2022-09-09T16:05:32;2.88;;;1.40;;
63492;SDS011;49638;47.526;10.028;2022-09-09T16:08:33;1.48;;;1.38;;
63492;SDS011;49638;47.526;10.028;2022-09-09T16:11:35;2.58;;;1.40;;
63492;SDS011;49638;47.526;10.028;2022-09-09T16:14:37;2.55;;;1.50;;
63492;SDS011;49638;47.526;10.028;2022-09-09T16:17:38;2.03;;;1.35;;
63492;SDS011;49638;47.526;10.028;2022-09-09T16:20:39;2.83;;;1.73;;
63492;SDS011;49638;47.526;10.028;2022-09-09T16:23:41;4.28;;;1.52;;
63492;SDS011;49638;47.526;10.028;2022-09-09T16:26:43;2.58;;;1.55;;
63492;SDS011;49638;47.526;10.028;2022-09-09T16:29:45;2.60;;;1.60;;
63492;SDS011;49638;47.526;10.028;2022-09-09T16:32:45;4.30;;;2.60;;
63492;SDS011;49638;47.526;10.028;2022-09-09T16:35:45;3.08;;;1.88;;
63492;SDS011;49638;47.526;10.028;2022-09-09T16:38:45;2.65;;;1.40;;
63492;SDS011;49638;47.526;10.028;2022-09-09T16:41:46;2.08;;;1.48;;
63492;SDS011;49638;47.526;10.028;2022-09-09T16:44:48;2.63;;;2.30;;
63492;SDS011;49638;47.526;10.028;2022-09-09T16:47:50;2.00;;;1.60;;
63492;SDS011;49638;47.526;10.028;2022-09-09T16:50:50;2.25;;;1.55;;
63492;SDS011;49638;47.526;10.028;2022-09-09T16:53:50;5.70;;;1.60;;
63492;SDS011;49638;47.526;10.028;2022-09-09T16:56:51;2.35;;;1.58;;
63492;SDS011;49638;47.526;10.028;2022-09-09T16:59:51;2.72;;;1.40;;
63492;SDS011;49638;47.526;10.028;2022-09-09T17:02:54;2.20;;;1.60;;
63492;SDS011;49638;47.526;10.028;2022-09-09T17:05:54;6.10;;;1.70;;
63492;SDS011;49638;47.526;10.028;2022-09-09T17:08:55;2.45;;;1.70;;
63492;SDS011;49638;47.526;10.028;2022-09-09T17:12:00;2.70;;;1.60;;
63492;SDS011;49638;47.526;10.028;2022-09-09T17:15:01;3.92;;;1.95;;
63492;SDS011;49638;47.526;10.028;2022-09-09T17:18:03;6.68;;;2.10;;
63492;SDS011;49638;47.526;10.028;2022-09-09T17:21:04;7.57;;;2.78;;
63492;SDS011;49638;47.526;10.028;2022-09-09T17:24:06;8.63;;;4.22;;
63492;SDS011;49638;47.526;10.028;2022-09-09T17:27:07;6.05;;;4.90;;
63492;SDS011;49638;47.526;10.028;2022-09-09T17:30:08;10.40;;;7.15;;
63492;SDS011;49638;47.526;10.028;2022-09-09T17:33:09;7.35;;;4.95;;
63492;SDS011;49638;47.526;10.028;2022-09-09T17:36:10;6.22;;;4.78;;
63492;SDS011;49638;47.526;10.028;2022-09-09T17:39:14;6.35;;;3.17;;
63492;SDS011;49638;47.526;10.028;2022-09-09T17:42:14;4.78;;;3.30;;
63492;SDS011;49638;47.526;10.028;2022-09-09T17:45:14;2.72;;;1.90;;
63492;SDS011;49638;47.526;10.028;2022-09-09T17:48:15;3.75;;;1.88;;
63492;SDS011;49638;47.526;10.028;2022-09-09T17:51:16;4.93;;;1.90;;
63492;SDS011;49638;47.526;10.028;2022-09-09T17:54:20;3.28;;;2.08;;
63492;SDS011;49638;47.526;10.028;2022-09-09T17:57:20;2.03;;;1.52;;
63492;SDS011;49638;47.526;10.028;2022-09-09T18:00:22;5.20;;;2.00;;
63492;SDS011;49638;47.526;10.028;2022-09-09T18:03:22;6.25;;;2.13;;
63492;SDS011;49638;47.526;10.028;2022-09-09T18:06:23;10.43;;;9.45;;
63492;SDS011;49638;47.526;10.028;2022-09-09T18:09:29;15.10;;;13.70;;
63492;SDS011;49638;47.526;10.028;2022-09-09T18:12:30;8.32;;;7.00;;
63492;SDS011;49638;47.526;10.028;2022-09-09T18:15:30;9.25;;;7.25;;
63492;SDS011;49638;47.526;10.028;2022-09-09T18:18:31;6.90;;;6.22;;
63492;SDS011;49638;47.526;10.028;2022-09-09T18:21:31;5.88;;;4.40;;
63492;SDS011;49638;47.526;10.028;2022-09-09T18:24:33;7.57;;;3.20;;
63492;SDS011;49638;47.526;10.028;2022-09-09T18:27:34;5.07;;;4.55;;
63492;SDS011;49638;47.526;10.028;2022-09-09T18:30:37;3.90;;;2.40;;
63492;SDS011;49638;47.526;10.028;2022-09-09T18:33:40;4.90;;;2.63;;
63492;SDS011;49638;47.526;10.028;2022-09-09T18:36:44;5.05;;;2.10;;
63492;SDS011;49638;47.526;10.028;2022-09-09T18:39:49;3.38;;;2.22;;
63492;SDS011;49638;47.526;10.028;2022-09-09T18:42:49;3.72;;;2.00;;
63492;SDS011;49638;47.526;10.028;2022-09-09T18:45:49;3.58;;;2.20;;
63492;SDS011;49638;47.526;10.028;2022-09-09T18:48:50;6.88;;;1.90;;
63492;SDS011;49638;47.526;10.028;2022-09-09T18:51:51;3.50;;;2.25;;
63492;SDS011;49638;47.526;10.028;2022-09-09T18:54:52;4.35;;;2.08;;
63492;SDS011;49638;47.526;10.028;2022-09-09T18:57:52;6.93;;;2.63;;
63492;SDS011;49638;47.526;10.028;2022-09-09T19:00:54;8.07;;;3.40;;
63492;SDS011;49638;47.526;10.028;2022-09-09T19:03:55;3.88;;;2.15;;
63492;SDS011;49638;47.526;10.028;2022-09-09T19:06:56;6.43;;;2.10;;
63492;SDS011;49638;47.526;10.028;2022-09-09T19:09:56;3.53;;;1.50;;
63492;SDS011;49638;47.526;10.028;2022-09-09T19:12:57;4.03;;;1.85;;
63492;SDS011;49638;47.526;10.028;2022-09-09T19:16:07;5.00;;;2.10;;
63492;SDS011;49638;47.526;10.028;2022-09-09T19:19:16;3.97;;;2.00;;
63492;SDS011;49638;47.526;10.028;2022-09-09T19:22:18;9.80;;;2.22;;
63492;SDS011;49638;47.526;10.028;2022-09-09T19:25:19;18.05;;;4.80;;
63492;SDS011;49638;47.526;10.028;2022-09-09T19:28:19;12.10;;;3.55;;
63492;SDS011;49638;47.526;10.028;2022-09-09T19:31:19;5.25;;;2.20;;
63492;SDS011;49638;47.526;10.028;2022-09-09T19:34:20;5.57;;;2.30;;
63492;SDS011;49638;47.526;10.028;2022-09-09T19:37:21;3.13;;;1.40;;
63492;SDS011;49638;47.526;10.028;2022-09-09T19:40:21;6.40;;;1.60;;
63492;SDS011;49638;47.526;10.028;2022-09-09T19:43:23;4.22;;;1.55;;
63492;SDS011;49638;47.526;10.028;2022-09-09T19:46:23;4.50;;;1.70;;
63492;SDS011;49638;47.526;10.028;2022-09-09T19:49:25;3.08;;;1.50;;
63492;SDS011;49638;47.526;10.028;2022-09-09T19:52:25;2.78;;;1.60;;
63492;SDS011;49638;47.526;10.028;2022-09-09T19:55:25;1.98;;;1.45;;
63492;SDS011;49638;47.526;10.028;2022-09-09T19:58:26;1.77;;;1.30;;
63492;SDS011;49638;47.526;10.028;2022-09-09T20:01:27;5.38;;;1.60;;
63492;SDS011;49638;47.526;10.028;2022-09-09T20:04:29;2.63;;;1.45;;
63492;SDS011;49638;47.526;10.028;2022-09-09T20:07:29;3.70;;;1.10;;
63492;SDS011;49638;47.526;10.028;2022-09-09T20:10:29;2.97;;;0.95;;
63492;SDS011;49638;47.526;10.028;2022-09-09T20:13:31;2.70;;;1.02;;
63492;SDS011;49638;47.526;10.028;2022-09-09T20:16:33;5.13;;;1.08;;
63492;SDS011;49638;47.526;10.028;2022-09-09T20:19:34;2.13;;;0.93;;
63492;SDS011;49638;47.526;10.028;2022-09-09T20:22:34;4.05;;;1.00;;
63492;SDS011;49638;47.526;10.028;2022-09-09T20:25:35;2.25;;;1.10;;
63492;SDS011;49638;47.526;10.028;2022-09-09T20:28:37;1.85;;;1.00;;
63492;SDS011;49638;47.526;10.028;2022-09-09T20:31:39;2.60;;;0.95;;
63492;SDS011;49638;47.526;10.028;2022-09-09T20:34:41;1.23;;;0.85;;
63492;SDS011;49638;47.526;10.028;2022-09-09T20:37:42;2.47;;;0.70;;